Latest Coastal Weather Observations for Coffs Harbour

IDN60701

Issued at 11:15 pm EST Friday 18 April 2014 (issued every 10 minutes, with the page automatically refreshed every 10 minutes)

About coastal observations | Map of coastal stations | Coastal observations for NSW | Marine services | Other Formats
Station Details ID: 059040 Name: COFFS HARBOUR MO Lat: -30.31 Lon: 153.12 Height: 5.0 m
Data from the previous 72 hours. | See also: Recent months at Coffs Harbour
Date/Time
EST
Temp

°C
Wind Pressure Rain
since 9am
mm
Weather Cloud Vis
km
Sea
Height
m
Swell
Dir
 
Speed
knots
Gust
knots
hPa Trend Height
m
Period
s
Dir
18/11:00pm 14.1 NW 8 10 1015.9 - 0.0 - - 10 - - - -
18/10:30pm 14.5 NW 10 11 1015.8 - 0.0 - - 10 - - - -
18/10:00pm 14.5 WNW 8 8 1015.9 - 0.0 - - 10 - - - -
18/09:30pm 14.6 WNW 6 7 1015.9 - 0.0 - - 10 - - - -
18/09:00pm 14.8 NW 4 5 1015.8 - 0.0 - - 10 - - - -
18/08:30pm 15.6 NNW 5 5 1015.5 - 0.0 - - 10 - - - -
18/08:00pm 15.4 CALM 0 0 1015.5 - 0.0 - - 10 - - - -
18/07:30pm 15.9 NNW 3 5 1015.2 - 0.0 - - 10 - - - -
18/07:00pm 16.6 W 4 5 1015.0 - 0.0 - - 10 - - - -
18/06:30pm 17.3 NW 4 4 1014.5 - 0.0 - - 10 - - - -
18/06:00pm 18.2 N 3 4 1014.4 - 0.0 - - 10 - - - -
18/05:30pm 18.8 NNE 4 5 1014.1 - 0.0 - - 10 - - - -
18/05:00pm 20.4 NE 5 6 1013.9 - 0.0 - - 10 - - - -
18/04:30pm 21.7 NE 6 8 1013.5 - 0.0 - - 10 - - - -
18/04:00pm 22.8 E 5 7 1013.5 - 0.0 - - 10 - - - -
18/03:30pm 23.1 E 6 8 1013.5 - 0.0 - - 10 - - - -
18/03:00pm 23.2 E 7 9 1013.5 R 0.0 Haze Mostly clear 20 - - - -
18/02:30pm 23.0 ESE 8 10 1013.5 - 0.0 - - 10 - - - -
18/02:00pm 23.2 ESE 9 12 1013.6 - 0.0 - - 10 - - - -
18/01:30pm 23.0 ESE 8 11 1013.8 - 0.0 - - 10 - - - -
18/01:00pm 23.1 SE 10 12 1013.8 - 0.0 - - 10 - - - -
18/12:30pm 23.0 SE 10 13 1014.3 - 0.0 - - 10 - - - -
18/12:00pm 23.4 SE 9 14 1015.0 - 0.0 - - 10 - - - -
18/11:30am 23.9 S 9 11 1015.5 - 0.0 - - 10 - - - -
18/11:00am 23.4 S 8 10 1016.1 - 0.0 - - 10 - - - -
18/10:30am 23.1 SSW 8 13 1016.4 - 0.0 - - 10 - - - -
18/10:00am 22.5 SW 10 15 1016.8 - 0.0 - - 10 - - - -
18/09:30am 22.5 SW 9 12 1017.0 - 0.0 - - 10 - - - -
18/09:00am 21.3 W 6 8 1017.2 F 0.0 - Clear 30 - - - -
18/08:30am 20.4 W 4 5 1017.2 - 0.0 - - 10 - - - -
18/08:00am 18.3 WSW 4 5 1017.2 - 0.0 - - 10 - - - -
18/07:30am 16.5 NW 1 3 1017.2 - 0.0 - - 10 - - - -
18/07:00am 14.3 NNW 1 3 1017.1 - 0.0 - - 10 - - - -
18/06:30am 12.4 WNW 4 5 1016.8 - 0.0 - - 10 - - - -
18/06:00am 12.2 CALM 0 3 1016.5 - 0.0 - - 10 - - - -
18/05:30am 12.6 WSW 4 5 1016.5 - 0.0 - - 10 - - - -
18/05:00am 12.7 W 3 4 1016.4 - 0.0 - - 10 - - - -
18/04:30am 13.2 CALM 0 4 1016.5 - 0.0 - - 10 - - - -
18/04:00am 13.4 NW 1 4 1016.4 - 0.0 - - 10 - - - -
18/03:30am 14.0 WSW 6 6 1016.4 - 0.0 - - 10 - - - -
18/03:00am 14.9 WSW 5 6 1016.7 - 0.0 - - 10 - - - -
18/02:30am 15.8 WSW 5 7 1016.8 - 0.0 - - 10 - - - -
18/02:00am 16.4 SW 5 7 1017.1 - 0.0 - - 10 - - - -
18/01:30am 17.3 WSW 5 7 1017.2 - 0.0 - - 10 - - - -
18/01:00am 17.1 WSW 8 13 1017.5 - 0.0 - - 10 - - - -
18/12:30am 17.3 WSW 6 9 1017.4 - 0.0 - - 10 - - - -
18/12:00am 17.5 WSW 7 10 1017.7 - 0.0 - - 10 - - - -
 
Date/Time
EST
Temp

°C
Wind Pressure Rain
since 9am
mm
Weather Cloud Vis
km
Sea
Height
m
Swell
Dir
 
Speed
knots
Gust
knots
hPa Trend Height
m
Period
s
Dir
17/11:30pm 18.1 SW 10 14 1017.9 - 0.0 - - 10 - - - -
17/11:00pm 18.3 SW 10 14 1018.1 - 0.0 - - 10 - - - -
17/10:30pm 18.1 WSW 10 15 1018.4 - 0.0 - - 10 - - - -
17/10:00pm 18.3 WSW 10 14 1018.5 - 0.0 - - 10 - - - -
17/09:30pm 18.7 SW 11 15 1018.4 - 0.0 - - 10 - - - -
17/09:00pm 18.9 WSW 10 14 1018.3 - 0.0 - - 10 - - - -
17/08:30pm 19.2 WSW 9 11 1018.1 - 0.0 - - 10 - - - -
17/08:00pm 19.5 WSW 9 13 1017.7 - 0.0 - Partly cloudy 10 - - - -
17/07:30pm 21.3 S 16 20 1017.5 - 0.0 - Partly cloudy 10 - - - -
17/07:00pm 21.5 S 17 22 1016.9 - 0.0 - Partly cloudy 10 - - - -
17/06:30pm 21.6 S 14 18 1016.6 - 0.0 - Partly cloudy 10 - - - -
17/06:00pm 21.3 S 14 19 1016.4 - 0.0 - - 10 - - - -
17/05:30pm 21.2 S 14 19 1016.2 - 0.0 - - 10 - - - -
17/05:00pm 21.7 S 14 20 1015.9 - 0.0 - - 10 - - - -
17/04:30pm 22.3 S 14 21 1015.7 - 0.0 - - 10 - - - -
17/04:00pm 22.7 SSE 14 19 1015.4 - 0.0 - - 10 - - - -
17/03:30pm 23.0 SSE 13 18 1015.5 - 0.0 - - 10 - - - -
17/03:00pm 23.2 S 13 17 1015.7 S 0.0 Fine Mostly clear 30 - - - -
17/02:30pm 23.9 SSE 11 15 1015.7 - 0.0 - Mostly clear 10 - - - -
17/02:00pm 23.5 SSE 12 15 1015.9 - 0.0 - Mostly clear 10 - - - -
17/01:30pm 23.3 SSE 10 13 1015.9 - 0.0 - Mostly clear 10 - - - -
17/01:00pm 23.7 SSE 9 13 1016.1 - 0.0 - Mostly clear 10 - - - -
17/12:30pm 23.4 S 12 14 1016.5 - 0.0 - Mostly clear 10 - - - -
17/12:00pm 23.0 S 11 15 1017.1 S 0.0 Fine Mostly clear 30 - - - -
17/11:30am 23.3 S 13 16 1017.4 - 0.0 - Mostly clear 10 - - - -
17/11:00am 23.5 S 13 17 1017.8 - 0.0 - Mostly clear 10 - - - -
17/10:30am 22.6 SSW 14 19 1017.9 - 0.0 - Mostly clear 10 - - - -
17/10:00am 22.4 SW 12 18 1018.1 - 0.0 - Mostly clear 10 - - - -
17/09:30am 21.8 WSW 13 17 1018.2 - 0.0 - Mostly clear 10 - - - -
17/09:00am 21.5 WSW 10 14 1018.3 F 0.0 Fine Mostly clear 30 - - - -
17/08:30am 20.9 WSW 9 12 1018.3 - 0.0 - Mostly clear 10 - - - -
17/08:00am 20.3 WSW 9 12 1018.1 - 0.0 - - 10 - - - -
17/07:30am 18.9 WSW 9 12 1017.9 - 0.0 - - 10 - - - -
17/07:00am 17.4 WSW 6 8 1017.5 - 0.0 - - 10 - - - -
17/06:30am 15.9 WSW 8 11 1017.3 - 0.0 - - 10 - - - -
17/06:00am 15.6 WSW 8 10 1017.0 F 0.0 Fine Mostly clear 30 - - - -
17/05:30am 15.1 WSW 8 10 1016.7 - 0.0 - - 10 - - - -
17/05:00am 15.3 WSW 8 10 1016.5 - 0.0 - - 10 - - - -
17/04:30am 15.9 WSW 8 11 1016.2 - 0.0 - - 10 - - - -
17/04:00am 16.3 SW 11 13 1016.4 - 0.0 - - 10 - - - -
17/03:30am 16.6 SW 11 13 1016.2 - 0.0 - - 10 - - - -
17/03:00am 15.8 SW 10 11 1016.2 - 0.0 - - 10 - - - -
17/02:30am 16.4 SW 9 12 1016.3 - 0.0 - - 10 - - - -
17/02:00am 17.8 SW 13 15 1016.4 - 0.0 - - 10 - - - -
17/01:30am 17.8 SW 11 14 1016.4 - 0.0 - - 10 - - - -
17/01:00am 17.7 SW 10 15 1016.7 - 0.0 - - 10 - - - -
17/12:30am 17.7 SW 11 13 1016.9 - 0.0 - - 10 - - - -
17/12:00am 18.0 WSW 10 15 1017.2 - 0.0 - - 10 - - - -
 
Date/Time
EST
Temp

°C
Wind Pressure Rain
since 9am
mm
Weather Cloud Vis
km
Sea
Height
m
Swell
Dir
 
Speed
knots
Gust
knots
hPa Trend Height
m
Period
s
Dir
16/11:30pm 18.0 SW 11 13 1016.9 - 0.0 - - 10 - - - -
16/11:00pm 17.8 SW 9 14 1017.1 - 0.0 - - 10 - - - -
16/10:30pm 18.1 SW 9 12 1017.4 - 0.0 - - 10 - - - -
16/10:00pm 18.3 SW 9 10 1017.4 - 0.0 - - 10 - - - -
16/09:30pm 18.0 SW 6 8 1017.4 - 0.0 - - 10 - - - -
16/09:00pm 17.8 SW 6 7 1017.4 - 0.0 - - 10 - - - -
16/08:30pm 18.3 WSW 5 8 1017.1 - 0.0 - - 10 - - - -
16/08:00pm 18.3 WSW 8 10 1016.8 - 0.0 - - 10 - - - -
16/07:30pm 18.2 SW 8 9 1016.7 - 0.0 - - 10 - - - -
16/07:00pm 19.1 WSW 9 13 1016.3 - 0.0 - - 10 - - - -
16/06:30pm 19.7 SSW 14 26 1016.1 - 0.0 - - 10 - - - -
16/06:00pm 20.1 SW 11 14 1015.8 - 0.0 - - 10 - - - -
16/05:30pm 20.4 SW 10 16 1015.4 - 0.0 - - 10 - - - -
16/05:00pm 21.5 SSW 15 20 1015.1 - 0.0 - Partly cloudy 10 - - - -
16/04:30pm 22.1 S 15 20 1014.9 - 0.0 - Partly cloudy 10 - - - -
16/04:00pm 22.4 S 15 21 1014.6 - 0.0 - - 10 - - - -
16/03:30pm 22.5 S 16 20 1014.7 - 0.0 - Partly cloudy 10 - - - -
16/03:00pm 23.5 S 13 18 1014.7 R 0.0 Fine Partly cloudy 30 - - - -
16/02:30pm 22.7 S 15 18 1014.7 - 0.0 - Partly cloudy 10 - - - -
16/02:00pm 23.8 S 17 20 1014.8 - 0.0 - Partly cloudy 10 - - - -
16/01:30pm 22.7 S 15 19 1014.9 - 0.0 - Partly cloudy 10 - - - -
16/01:00pm 22.6 SW 14 19 1015.1 - 0.0 - Partly cloudy 10 - - - -
16/12:30pm 22.5 SSW 15 20 1015.4 - 0.0 - Partly cloudy 10 - - - -
16/12:00pm 23.6 S 15 19 1015.8 F 0.0 Distant precip. Partly cloudy 30 - - - -
16/11:30am 22.3 SW 13 16 1016.2 - 0.0 - Partly cloudy 10 - - - -
16/11:00am 21.8 SSW 15 21 1016.8 - 0.0 - Partly cloudy 10 - - - -
16/10:30am 21.9 SSW 16 20 1017.0 - 0.0 - Mostly clear 10 - - - -
16/10:00am 22.1 SW 15 20 1017.0 - 0.0 - Mostly clear 10 - - - -
16/09:30am 19.9 SW 9 14 1017.4 - 0.0 - Mostly clear 10 - - - -
16/09:00am 19.5 SW 10 14 1017.5 R Trace Distant precip. Mostly cloudy 30 - - - -
16/08:30am 19.3 SW 13 16 1017.1 - - - Mostly clear 10 - - - -
16/08:00am 18.6 SW 9 12 1017.2 - - - Mostly clear 10 - - - -
16/07:30am 17.9 SW 7 10 1016.7 - - - Mostly clear 10 - - - -
16/07:00am 16.6 SW 7 9 1016.3 - - - Mostly clear 10 - - - -
16/06:30am 16.1 SW 6 8 1016.0 - - - Partly cloudy 10 - - - -
16/06:00am 16.7 WSW 7 9 1015.8 F - Fine Mostly cloudy 30 - - - -
16/05:30am 16.9 SW 7 8 1015.8 - - - Partly cloudy 10 - - - -
16/05:00am 16.1 WSW 7 9 1015.6 - - - Partly cloudy 10 - - - -
16/04:30am 15.7 WSW 7 8 1015.7 - - - Partly cloudy 10 - - - -
16/04:00am 15.9 WSW 7 10 1015.6 - - - - 10 - - - -
16/03:30am 16.6 SW 7 9 1015.6 - - - Partly cloudy 10 - - - -
16/03:00am 16.5 WSW 7 9 1015.6 - - - - 10 - - - -
16/02:30am 16.1 WSW 7 9 1015.5 - - - - 10 - - - -
16/02:00am 16.0 WSW 9 12 1015.6 - - - - 10 - - - -
16/01:30am 16.4 SW 7 8 1016.0 - - - - 10 - - - -
16/01:00am 16.9 W 7 9 1016.2 - - - Partly cloudy 10 - - - -
16/12:30am 17.6 WSW 8 10 1016.6 - - - Partly cloudy 10 - - - -
16/12:00am 17.7 WSW 7 9 1016.9 - - - Partly cloudy 10 - - - -
 
Date/Time
EST
Temp

°C
Wind Pressure Rain
since 9am
mm
Weather Cloud Vis
km
Sea
Height
m
Swell
Dir
 
Speed
knots
Gust
knots
hPa Trend Height
m
Period
s
Dir
15/11:30pm 17.7 WSW 8 10 1017.0 - - - Partly cloudy 10 - - - -

Other Formats:

Comma delimited format used in spreadsheet applications
http://www.bom.gov.au/fwo/IDN60701/IDN60701.94791.axf

JavaScript Object Notation format (JSON) in row-major order
http://www.bom.gov.au/fwo/IDN60701/IDN60701.94791.json